createdAt,value
2019-05-05T00:00:16.709Z,70.50
2019-05-05T00:01:00.993Z,69.70
2019-05-05T00:01:56.075Z,68.10
2019-05-05T00:02:51.833Z,67.00
2019-05-05T00:03:48.505Z,66.80
2019-05-05T00:04:48.720Z,66.00
2019-05-05T00:05:35.366Z,67.60
2019-05-05T00:06:14.741Z,70.40
2019-05-05T00:06:54.909Z,70.30
2019-05-05T00:07:35.101Z,71.30
2019-05-05T00:08:15.245Z,72.00
2019-05-05T00:08:54.757Z,72.70
2019-05-05T00:09:34.704Z,73.60
2019-05-05T00:10:17.793Z,74.70
2019-05-05T00:11:12.277Z,74.30
2019-05-05T00:12:15.691Z,72.00
2019-05-05T00:13:04.379Z,70.30
2019-05-05T00:13:50.222Z,68.20
2019-05-05T00:14:35.880Z,66.80
2019-05-05T00:15:41.731Z,65.90
2019-05-05T00:16:37.318Z,66.70
2019-05-05T00:17:20.448Z,68.90
2019-05-05T00:17:59.158Z,70.30
2019-05-05T00:18:38.678Z,71.20
2019-05-05T00:19:29.937Z,71.90
2019-05-05T00:19:58.220Z,73.00
2019-05-05T00:20:37.236Z,73.90
2019-05-05T00:21:16.345Z,73.80
2019-05-05T00:21:55.136Z,74.60
2019-05-05T00:22:35.023Z,74.40
2019-05-05T00:23:14.592Z,71.80
2019-05-05T00:23:55.217Z,70.50
2019-05-05T00:24:34.874Z,68.90
2019-05-05T00:25:14.285Z,67.60
2019-05-05T00:25:55.135Z,66.30
2019-05-05T00:26:34.798Z,65.40
2019-05-05T00:27:14.828Z,65.70
2019-05-05T00:27:54.481Z,66.70
2019-05-05T00:28:32.608Z,68.40
2019-05-05T00:29:11.500Z,69.60
2019-05-05T00:29:49.901Z,70.50
2019-05-05T00:30:29.187Z,71.30
2019-05-05T00:31:08.218Z,71.70
2019-05-05T00:31:46.941Z,73.10
2019-05-05T00:32:25.391Z,73.60
2019-05-05T00:33:05.566Z,74.30
2019-05-05T00:33:44.868Z,74.80
2019-05-05T00:34:24.492Z,72.20
2019-05-05T00:35:04.325Z,70.80
2019-05-05T00:35:45.152Z,69.30
2019-05-05T00:36:24.580Z,67.80
2019-05-05T00:37:04.595Z,66.50
2019-05-05T00:37:44.951Z,65.60
2019-05-05T00:38:24.907Z,65.70
2019-05-05T00:39:04.297Z,66.70
2019-05-05T00:39:45.002Z,67.90
2019-05-05T00:40:24.677Z,69.30
2019-05-05T00:41:02.879Z,70.10
2019-05-05T00:41:41.654Z,71.00
2019-05-05T00:42:20.136Z,72.30
2019-05-05T00:42:59.194Z,73.10
2019-05-05T00:43:38.083Z,74.00
2019-05-05T00:44:16.872Z,74.50
2019-05-05T00:44:56.145Z,74.70
2019-05-05T00:45:35.040Z,74.10
2019-05-05T00:46:24.454Z,70.90
2019-05-05T00:47:19.128Z,69.50
2019-05-05T00:48:07.810Z,68.10
2019-05-05T00:48:47.926Z,66.50
2019-05-05T00:49:26.639Z,66.50
2019-05-05T00:50:05.336Z,67.30
2019-05-05T00:50:44.993Z,69.20
2019-05-05T00:51:24.421Z,70.80
2019-05-05T00:52:04.949Z,72.00
2019-05-05T00:52:44.571Z,72.30
2019-05-05T00:53:25.048Z,73.30
2019-05-05T00:54:04.393Z,74.40
2019-05-05T00:54:44.933Z,74.80
2019-05-05T00:55:24.432Z,75.20
2019-05-05T00:56:04.972Z,75.70
2019-05-05T00:56:44.857Z,72.80
2019-05-05T00:57:24.292Z,71.50
2019-05-05T00:58:02.822Z,70.00
2019-05-05T00:58:46.388Z,68.70
2019-05-05T00:59:26.140Z,67.80
2019-05-05T01:00:05.318Z,66.70
2019-05-05T01:00:48.393Z,67.70
2019-05-05T01:01:37.574Z,69.20
2019-05-05T01:02:37.057Z,70.40
2019-05-05T01:03:15.501Z,71.50
2019-05-05T01:03:54.633Z,72.50
2019-05-05T01:04:44.421Z,73.70
2019-05-05T01:05:37.919Z,74.60
2019-05-05T01:06:20.760Z,74.90
2019-05-05T01:06:59.633Z,75.20
2019-05-05T01:07:38.969Z,75.10
2019-05-05T01:08:20.171Z,71.60
2019-05-05T01:08:59.584Z,70.50
2019-05-05T01:09:39.241Z,68.90
2019-05-05T01:10:18.053Z,67.70
2019-05-05T01:10:56.784Z,66.80
2019-05-05T01:11:35.577Z,66.10
2019-05-05T01:12:15.408Z,66.50
2019-05-05T01:12:54.446Z,68.10
2019-05-05T01:13:35.035Z,69.30
2019-05-05T01:14:14.425Z,70.60
2019-05-05T01:14:55.133Z,71.30
2019-05-05T01:15:34.557Z,71.80
2019-05-05T01:16:15.242Z,73.30
2019-05-05T01:16:54.604Z,73.50
2019-05-05T01:17:34.506Z,73.80
2019-05-05T01:18:15.256Z,74.00
2019-05-05T01:18:55.207Z,74.50
2019-05-05T01:19:34.961Z,71.70
2019-05-05T01:20:14.645Z,70.80
2019-05-05T01:20:55.071Z,69.10
2019-05-05T01:21:34.914Z,68.10
2019-05-05T01:22:14.391Z,67.10
2019-05-05T01:22:55.233Z,66.00
2019-05-05T01:23:34.938Z,66.90
2019-05-05T01:24:14.464Z,68.20
2019-05-05T01:24:55.451Z,69.80
2019-05-05T01:25:34.727Z,70.90
2019-05-05T01:26:14.400Z,71.50
2019-05-05T01:26:55.004Z,72.50
2019-05-05T01:27:34.735Z,72.80
2019-05-05T01:28:14.341Z,73.60
2019-05-05T01:28:53.517Z,74.20
2019-05-05T01:29:32.188Z,74.60
2019-05-05T01:30:12.126Z,75.00
2019-05-05T01:30:54.913Z,72.00
2019-05-05T01:31:34.645Z,70.70
2019-05-05T01:32:18.298Z,69.00
2019-05-05T01:33:01.655Z,67.60
2019-05-05T01:34:14.970Z,66.90
2019-05-05T01:34:54.934Z,67.90
2019-05-05T01:35:34.243Z,70.50
2019-05-05T01:36:14.884Z,71.60
2019-05-05T01:36:59.592Z,72.30
2019-05-05T01:37:47.216Z,73.10
2019-05-05T01:38:38.627Z,74.00
2019-05-05T01:39:35.094Z,74.80
2019-05-05T01:40:27.821Z,75.20
2019-05-05T01:41:18.652Z,75.30
2019-05-05T01:41:59.659Z,72.10
2019-05-05T01:42:39.029Z,70.30
2019-05-05T01:43:17.548Z,69.00
2019-05-05T01:43:56.024Z,68.50
2019-05-05T01:44:35.437Z,69.20
2019-05-05T01:45:14.956Z,70.80
2019-05-05T01:45:54.630Z,73.00
2019-05-05T01:46:35.309Z,73.10
2019-05-05T01:47:14.887Z,74.10
2019-05-05T01:47:54.521Z,75.00
2019-05-05T01:48:35.084Z,75.40
2019-05-05T01:49:14.680Z,75.90
2019-05-05T01:49:54.432Z,75.90
2019-05-05T01:50:34.965Z,76.70
2019-05-05T01:51:14.382Z,76.20
2019-05-05T01:51:55.114Z,73.60
2019-05-05T01:52:34.473Z,72.50
2019-05-05T01:53:15.132Z,70.80
2019-05-05T01:53:54.543Z,69.60
2019-05-05T01:54:35.161Z,69.70
2019-05-05T01:55:14.657Z,68.60
2019-05-05T01:55:54.218Z,69.10
2019-05-05T01:56:35.115Z,69.20
2019-05-05T01:57:14.841Z,69.10
2019-05-05T01:57:54.409Z,69.00
2019-05-05T01:58:34.761Z,68.80
2019-05-05T01:59:14.339Z,68.80
2019-05-05T01:59:55.096Z,68.80
2019-05-05T02:00:34.829Z,68.80
2019-05-05T02:01:15.254Z,68.60
2019-05-05T02:01:55.095Z,68.40
2019-05-05T02:02:34.349Z,68.30
2019-05-05T02:03:14.757Z,68.20
2019-05-05T02:03:54.900Z,68.20
2019-05-05T02:04:34.400Z,68.20
2019-05-05T02:05:14.748Z,68.10
2019-05-05T02:05:54.577Z,68.10
2019-05-05T02:06:35.006Z,68.00
2019-05-05T02:07:14.679Z,67.80
2019-05-05T02:07:55.333Z,67.70
2019-05-05T02:08:34.935Z,67.60
2019-05-05T02:09:15.903Z,67.70
2019-05-05T02:09:55.342Z,67.60
2019-05-05T02:10:34.993Z,67.70
2019-05-05T02:11:15.653Z,67.70
2019-05-05T02:11:55.013Z,67.80
2019-05-05T02:12:35.283Z,68.00
2019-05-05T02:13:15.958Z,68.00
2019-05-05T02:13:54.573Z,68.70
2019-05-05T02:14:35.195Z,69.80
2019-05-05T02:15:31.868Z,72.10
2019-05-05T02:16:10.528Z,73.00
2019-05-05T02:16:49.651Z,72.40
2019-05-05T02:17:28.551Z,72.80
2019-05-05T02:18:07.452Z,73.40
2019-05-05T02:18:46.204Z,73.60
2019-05-05T02:19:25.216Z,74.50
2019-05-05T02:20:05.247Z,74.30
2019-05-05T02:20:54.333Z,74.60
2019-05-05T02:21:35.100Z,74.50
2019-05-05T02:22:14.817Z,74.90
2019-05-05T02:22:55.219Z,76.00
2019-05-05T02:23:35.153Z,76.40
2019-05-05T02:24:14.552Z,75.70
2019-05-05T02:24:55.110Z,76.10
2019-05-05T02:25:34.533Z,76.50
2019-05-05T02:26:14.716Z,76.30
2019-05-05T02:26:54.542Z,76.40
2019-05-05T02:27:34.322Z,76.10
2019-05-05T02:28:14.787Z,75.80
2019-05-05T02:29:16.750Z,75.80
2019-05-05T02:30:16.172Z,75.60
2019-05-05T02:31:07.278Z,75.60
2019-05-05T02:32:05.963Z,75.70
2019-05-05T02:32:50.604Z,76.50
2019-05-05T02:33:29.806Z,76.30
2019-05-05T02:34:08.239Z,76.60
2019-05-05T02:34:52.020Z,76.30
2019-05-05T02:35:31.029Z,76.50
2019-05-05T02:36:09.487Z,76.40
2019-05-05T02:36:47.944Z,76.30
2019-05-05T02:37:26.975Z,76.10
2019-05-05T02:38:06.740Z,76.10
2019-05-05T02:38:46.442Z,75.80
2019-05-05T02:39:25.227Z,75.80
2019-05-05T02:40:07.370Z,75.70
2019-05-05T02:40:45.197Z,75.40
2019-05-05T02:41:25.492Z,75.30
2019-05-05T02:42:05.783Z,75.20
2019-05-05T02:42:45.883Z,75.20
2019-05-05T02:43:25.156Z,75.70
2019-05-05T02:44:05.095Z,76.30
2019-05-05T02:44:45.620Z,76.70
2019-05-05T02:45:55.162Z,76.70
2019-05-05T02:46:49.691Z,76.90
2019-05-05T02:47:37.768Z,77.30
2019-05-05T02:48:17.640Z,77.10
2019-05-05T02:48:56.346Z,77.90
2019-05-05T02:49:35.257Z,77.50
2019-05-05T02:50:15.601Z,77.70
2019-05-05T02:51:02.376Z,77.90
2019-05-05T02:51:38.198Z,77.80
2019-05-05T02:52:16.756Z,77.60
2019-05-05T02:52:55.287Z,78.10
2019-05-05T02:53:38.972Z,77.60
2019-05-05T02:54:17.485Z,78.10
2019-05-05T02:54:55.930Z,78.50
2019-05-05T02:55:34.795Z,78.10
2019-05-05T02:56:17.550Z,78.20
2019-05-05T02:56:56.702Z,78.20
2019-05-05T02:57:35.115Z,78.90
2019-05-05T02:58:14.007Z,78.80
2019-05-05T02:58:53.714Z,79.00
2019-05-05T03:00:08.735Z,79.10
2019-05-05T03:01:02.028Z,78.90
2019-05-05T03:01:44.779Z,78.90
2019-05-05T03:02:26.081Z,78.70
2019-05-05T03:03:04.943Z,78.90
2019-05-05T03:03:43.888Z,79.20
2019-05-05T03:04:24.460Z,79.20
2019-05-05T03:05:04.174Z,79.10
2019-05-05T03:05:43.490Z,79.00
2019-05-05T03:06:23.690Z,78.80
2019-05-05T03:07:04.571Z,78.60
2019-05-05T03:07:43.745Z,78.90
2019-05-05T03:08:24.241Z,78.80
2019-05-05T03:09:04.434Z,79.10
2019-05-05T03:09:43.991Z,79.40
2019-05-05T03:10:24.571Z,79.40
2019-05-05T03:11:03.901Z,79.60
2019-05-05T03:11:43.677Z,79.40
2019-05-05T03:12:24.282Z,79.20
2019-05-05T03:13:04.781Z,79.40
2019-05-05T03:13:44.203Z,79.10
2019-05-05T03:14:23.743Z,79.10
2019-05-05T03:15:04.147Z,79.00
2019-05-05T03:15:57.304Z,79.20
2019-05-05T03:16:38.945Z,78.90
2019-05-05T03:17:17.473Z,78.90
2019-05-05T03:17:55.882Z,78.80
2019-05-05T03:18:34.940Z,79.20
2019-05-05T03:19:14.222Z,79.20
2019-05-05T03:19:53.513Z,79.10
2019-05-05T03:20:34.325Z,78.90
2019-05-05T03:21:14.034Z,79.60
2019-05-05T03:21:54.457Z,81.40
2019-05-05T03:22:34.106Z,81.40
2019-05-05T03:23:13.607Z,82.70
2019-05-05T03:23:54.739Z,83.60
2019-05-05T03:24:34.179Z,84.70
2019-05-05T03:25:13.663Z,85.20
2019-05-05T03:25:54.442Z,86.20
2019-05-05T03:26:34.024Z,86.50
2019-05-05T03:27:14.324Z,87.00
2019-05-05T03:27:53.800Z,86.80
2019-05-05T03:28:43.737Z,86.50
2019-05-05T03:29:24.356Z,86.20
2019-05-05T03:30:04.955Z,86.20
2019-05-05T03:30:45.506Z,85.50
2019-05-05T03:31:26.303Z,84.70
2019-05-05T03:32:05.625Z,84.50
2019-05-05T03:32:45.656Z,84.80
2019-05-05T03:33:25.014Z,85.10
2019-05-05T03:34:05.875Z,85.80
2019-05-05T03:34:44.595Z,85.60
2019-05-05T03:35:24.125Z,85.10
2019-05-05T03:36:03.572Z,84.70
2019-05-05T03:36:44.182Z,84.70
2019-05-05T03:37:24.823Z,84.70
2019-05-05T03:38:03.875Z,84.30
2019-05-05T03:38:44.347Z,84.10
2019-05-05T03:39:27.819Z,83.90
2019-05-05T03:40:14.808Z,83.90
2019-05-05T03:40:55.324Z,83.90
2019-05-05T03:41:39.003Z,83.70
2019-05-05T03:42:24.518Z,83.40
2019-05-05T03:43:10.812Z,83.30
2019-05-05T03:44:06.046Z,83.40
2019-05-05T03:44:51.171Z,83.90
2019-05-05T03:45:53.836Z,83.90
2019-05-05T03:46:34.445Z,83.90
2019-05-05T03:47:13.960Z,83.50
2019-05-05T03:47:54.130Z,83.50
2019-05-05T03:48:34.631Z,83.50
2019-05-05T03:49:14.142Z,83.90
2019-05-05T03:49:53.574Z,84.00
2019-05-05T03:50:34.075Z,83.70
2019-05-05T03:51:18.831Z,83.60
2019-05-05T03:51:55.060Z,83.70
2019-05-05T03:52:35.324Z,83.70
2019-05-05T03:53:14.178Z,83.80
2019-05-05T03:53:53.572Z,83.90
2019-05-05T03:54:34.265Z,84.00
2019-05-05T03:55:13.861Z,83.90
2019-05-05T03:55:54.522Z,84.10
2019-05-05T03:56:34.783Z,84.10
2019-05-05T03:57:14.201Z,84.10
2019-05-05T03:57:53.790Z,84.00
2019-05-05T03:58:34.322Z,84.40
2019-05-05T03:59:13.986Z,84.70
2019-05-05T03:59:52.119Z,84.70
2019-05-05T04:01:14.526Z,84.40
2019-05-05T04:01:58.480Z,84.80
2019-05-05T04:02:50.396Z,85.30
2019-05-05T04:03:29.102Z,85.60
2019-05-05T04:04:44.126Z,85.60
2019-05-05T04:05:40.946Z,85.60
2019-05-05T04:06:25.159Z,86.00
2019-05-05T04:07:04.752Z,86.00
2019-05-05T04:07:44.239Z,86.00
2019-05-05T04:08:23.504Z,85.70
2019-05-05T04:09:02.002Z,85.40
2019-05-05T04:09:40.547Z,84.80
2019-05-05T04:10:19.048Z,84.40
2019-05-05T04:10:57.842Z,84.30
2019-05-05T04:11:37.141Z,84.90
2019-05-05T04:12:16.423Z,85.30
2019-05-05T04:12:55.618Z,85.70
2019-05-05T04:13:34.565Z,86.10
2019-05-05T04:14:14.267Z,86.50
2019-05-05T04:14:54.616Z,85.70
2019-05-05T04:15:33.841Z,85.70
2019-05-05T04:16:24.633Z,85.50
2019-05-05T04:17:18.584Z,85.70
2019-05-05T04:18:10.367Z,85.60
2019-05-05T04:18:54.216Z,86.00
2019-05-05T04:19:34.389Z,86.10
2019-05-05T04:20:36.627Z,86.70
2019-05-05T04:21:15.529Z,86.40
2019-05-05T04:21:54.636Z,86.10
2019-05-05T04:22:34.555Z,86.00
2019-05-05T04:23:14.156Z,86.00
2019-05-05T04:23:53.632Z,86.40
2019-05-05T04:24:34.028Z,86.40
2019-05-05T04:25:13.884Z,86.30
2019-05-05T04:25:54.332Z,86.40
2019-05-05T04:26:33.564Z,86.50
2019-05-05T04:27:14.407Z,87.10
2019-05-05T04:27:53.836Z,86.30
2019-05-05T04:28:34.449Z,86.20
2019-05-05T04:29:13.918Z,86.40
2019-05-05T04:29:54.468Z,86.60
2019-05-05T04:30:33.944Z,86.30
2019-05-05T04:31:13.588Z,86.50
2019-05-05T04:31:53.897Z,86.70
2019-05-05T04:32:34.717Z,86.60
2019-05-05T04:33:14.213Z,86.50
2019-05-05T04:33:53.841Z,86.70
2019-05-05T04:34:34.710Z,86.70
2019-05-05T04:35:14.064Z,86.60
2019-05-05T04:35:54.529Z,86.60
2019-05-05T04:36:34.043Z,86.70
2019-05-05T04:37:14.853Z,87.60
2019-05-05T04:37:54.301Z,86.80
2019-05-05T04:38:34.693Z,87.00
2019-05-05T04:39:14.414Z,86.80
2019-05-05T04:39:53.776Z,86.80
2019-05-05T04:40:34.413Z,86.60
2019-05-05T04:41:14.001Z,86.40
2019-05-05T04:41:54.014Z,86.70
2019-05-05T04:42:33.701Z,87.00
2019-05-05T04:43:14.122Z,87.00
2019-05-05T04:43:52.224Z,86.90
2019-05-05T04:44:31.045Z,87.00
2019-05-05T04:45:10.261Z,87.10
2019-05-05T04:45:49.224Z,87.10
2019-05-05T04:46:27.981Z,87.10
2019-05-05T04:47:14.499Z,87.10
2019-05-05T04:47:56.090Z,87.20
2019-05-05T04:48:44.369Z,87.00
2019-05-05T04:49:34.874Z,87.00
2019-05-05T04:50:34.394Z,86.70
2019-05-05T04:51:25.748Z,86.60
2019-05-05T04:52:05.343Z,86.70
2019-05-05T04:52:43.803Z,86.60
2019-05-05T04:53:26.441Z,86.60
2019-05-05T04:54:10.506Z,86.40
2019-05-05T04:54:55.680Z,86.70
2019-05-05T04:55:34.422Z,86.60
2019-05-05T04:56:14.142Z,86.60
2019-05-05T04:56:53.973Z,86.60
2019-05-05T04:57:32.882Z,86.60
2019-05-05T04:58:13.552Z,86.60
2019-05-05T04:58:52.055Z,86.70
2019-05-05T04:59:31.056Z,86.80
2019-05-05T05:00:10.449Z,87.00
2019-05-05T05:00:49.481Z,87.00
2019-05-05T05:01:28.446Z,86.80
2019-05-05T05:02:15.265Z,86.90
2019-05-05T05:03:13.424Z,86.90
2019-05-05T05:04:10.452Z,86.70
2019-05-05T05:04:56.612Z,86.80
2019-05-05T05:05:53.628Z,86.70
2019-05-05T05:06:36.271Z,86.70
2019-05-05T05:07:16.638Z,86.90
2019-05-05T05:07:57.898Z,86.70
2019-05-05T05:08:35.026Z,86.70
2019-05-05T05:09:14.676Z,86.70
2019-05-05T05:09:53.981Z,86.70
2019-05-05T05:10:34.619Z,86.60
2019-05-05T05:11:14.143Z,87.40
2019-05-05T05:11:54.702Z,86.60
2019-05-05T05:12:34.183Z,86.60
2019-05-05T05:13:13.842Z,86.60
2019-05-05T05:13:54.428Z,86.40
2019-05-05T05:14:33.702Z,86.40
2019-05-05T05:15:14.405Z,86.40
2019-05-05T05:15:53.946Z,86.50
2019-05-05T05:16:32.898Z,86.60
2019-05-05T05:17:15.675Z,86.40
2019-05-05T05:18:00.533Z,86.30
2019-05-05T05:18:39.655Z,86.10
2019-05-05T05:19:18.272Z,86.30
2019-05-05T05:19:56.790Z,86.30
2019-05-05T12:03:14.339Z,79.20
2019-05-05T12:03:53.658Z,79.20
2019-05-05T12:04:32.574Z,79.20
2019-05-05T12:05:11.023Z,79.30
2019-05-05T12:05:49.493Z,79.10
2019-05-05T12:06:27.950Z,78.70
2019-05-05T12:07:06.388Z,78.90
2019-05-05T12:07:45.375Z,78.80
2019-05-05T12:08:24.450Z,78.90
2019-05-05T12:09:04.641Z,78.60
2019-05-05T12:09:55.612Z,78.80
2019-05-05T12:10:51.109Z,78.90
2019-05-05T12:11:29.605Z,79.00
2019-05-05T12:12:08.089Z,79.40
2019-05-05T12:12:46.495Z,79.40
2019-05-05T12:13:25.123Z,78.90
2019-05-05T12:14:05.371Z,78.80
2019-05-05T12:14:44.481Z,78.60
2019-05-05T12:15:23.887Z,78.60
2019-05-05T12:16:07.399Z,78.40
2019-05-05T12:16:46.687Z,78.50
2019-05-05T12:17:38.296Z,78.50
2019-05-05T12:18:16.733Z,78.50
2019-05-05T12:18:55.701Z,78.30
2019-05-05T12:19:34.391Z,78.40
2019-05-05T12:20:13.613Z,78.80
2019-05-05T12:20:54.358Z,79.40
2019-05-05T12:21:33.731Z,79.30
2019-05-05T12:22:13.191Z,79.30
2019-05-05T12:22:53.895Z,79.10
2019-05-05T12:23:34.062Z,78.90
2019-05-05T12:24:26.700Z,78.90
2019-05-05T12:25:06.688Z,78.70
2019-05-05T12:25:57.779Z,78.50
2019-05-05T12:26:54.515Z,78.40
2019-05-05T12:27:36.782Z,78.30
2019-05-05T12:28:31.740Z,78.40
2019-05-05T12:29:14.077Z,78.60
2019-05-05T12:30:14.139Z,78.60
2019-05-05T12:30:52.928Z,78.90
2019-05-05T12:31:33.873Z,78.90
2019-05-05T12:32:12.985Z,78.60
2019-05-05T12:32:51.795Z,78.70
2019-05-05T12:33:30.225Z,78.80
2019-05-05T12:34:10.245Z,78.60
2019-05-05T12:34:48.680Z,79.00
2019-05-05T12:35:27.040Z,78.80
2019-05-05T12:36:05.566Z,78.80
2019-05-05T12:36:44.552Z,78.90
2019-05-05T12:37:23.689Z,78.60
2019-05-05T12:38:02.246Z,78.60
2019-05-05T12:38:40.588Z,78.70
2019-05-05T12:39:19.050Z,78.90
2019-05-05T12:39:57.433Z,78.60
2019-05-05T12:40:38.630Z,78.70
2019-05-05T12:41:17.135Z,78.80
2019-05-05T12:41:55.470Z,79.20
2019-05-05T12:42:33.873Z,79.10
2019-05-05T12:43:14.099Z,78.90
2019-05-05T12:43:54.582Z,78.70
2019-05-05T12:44:36.756Z,78.60
2019-05-05T12:45:18.131Z,78.80
2019-05-05T12:46:13.742Z,78.60
2019-05-05T12:46:59.770Z,78.90
2019-05-05T12:47:58.946Z,78.90
2019-05-05T12:48:38.906Z,78.90
2019-05-05T12:49:17.306Z,79.10
2019-05-05T12:49:55.754Z,79.20
2019-05-05T12:50:34.136Z,79.00
2019-05-05T12:51:14.598Z,78.80
2019-05-05T12:51:54.080Z,79.10
2019-05-05T12:52:33.568Z,78.70
2019-05-05T12:53:14.410Z,78.70
2019-05-05T12:53:53.854Z,79.00
2019-05-05T12:54:33.601Z,78.70
2019-05-05T12:55:11.756Z,79.10
2019-05-05T12:55:50.154Z,79.10
2019-05-05T12:56:28.501Z,78.80
2019-05-05T12:57:07.436Z,79.00
2019-05-05T12:57:45.767Z,79.20
2019-05-05T12:58:24.152Z,79.10
2019-05-05T12:59:04.133Z,79.00
2019-05-05T12:59:44.285Z,78.80
2019-05-05T13:00:22.411Z,78.60
2019-05-05T13:01:14.282Z,78.60
2019-05-05T13:01:54.705Z,78.90
2019-05-05T13:02:32.825Z,78.90
2019-05-05T13:03:11.164Z,78.80
2019-05-05T13:03:49.535Z,79.10
2019-05-05T13:04:27.972Z,79.20
2019-05-05T13:05:06.365Z,78.80
2019-05-05T13:05:44.762Z,78.90
2019-05-05T13:06:24.030Z,79.10
2019-05-05T13:07:04.483Z,79.50
2019-05-05T13:07:44.140Z,79.60
2019-05-05T13:08:23.421Z,79.50
2019-05-05T13:09:01.900Z,79.50
2019-05-05T13:09:40.282Z,79.40
2019-05-05T13:10:19.302Z,79.50
2019-05-05T13:10:57.786Z,79.60
2019-05-05T13:11:36.307Z,79.60
2019-05-05T13:12:15.211Z,79.60
2019-05-05T13:12:56.428Z,79.20
2019-05-05T13:13:34.841Z,79.30
2019-05-05T13:14:14.267Z,79.20
2019-05-05T13:14:54.443Z,79.20
2019-05-05T13:15:33.899Z,79.10
2019-05-05T13:16:13.633Z,79.00
2019-05-05T13:16:53.900Z,79.40
2019-05-05T13:17:35.247Z,79.20
2019-05-05T13:18:14.041Z,79.50
2019-05-05T13:18:53.894Z,79.40
2019-05-05T13:19:47.442Z,79.40
2019-05-05T13:20:44.403Z,79.90
2019-05-05T13:21:40.848Z,79.70
2019-05-05T13:22:37.391Z,79.20
2019-05-05T13:23:39.655Z,78.80
2019-05-05T13:24:37.137Z,79.10
2019-05-05T13:25:33.521Z,79.40
2019-05-05T13:26:26.018Z,79.20
2019-05-05T13:27:19.191Z,79.20
2019-05-05T13:27:57.224Z,79.10
2019-05-05T13:28:34.801Z,79.40
2019-05-05T13:29:13.945Z,79.70
2019-05-05T13:29:53.607Z,79.70
2019-05-05T13:30:34.283Z,80.00
2019-05-05T13:31:13.791Z,79.60
2019-05-05T13:31:54.202Z,79.60
2019-05-05T13:32:33.582Z,79.30
2019-05-05T13:33:14.015Z,79.30
2019-05-05T13:33:52.066Z,79.50
2019-05-05T13:34:30.453Z,79.40
2019-05-05T13:35:09.412Z,79.20
2019-05-05T13:35:47.744Z,79.40
2019-05-05T13:36:26.157Z,79.80
2019-05-05T13:37:04.564Z,79.60
2019-05-05T13:37:44.394Z,79.40
2019-05-05T13:38:23.919Z,79.50
2019-05-05T13:39:02.470Z,79.20
2019-05-05T13:39:41.007Z,79.10
2019-05-05T13:40:19.369Z,79.30
2019-05-05T13:40:57.776Z,79.30
2019-05-05T13:41:36.233Z,79.00
2019-05-05T13:42:15.555Z,79.80
2019-05-05T13:42:54.700Z,80.00
2019-05-05T13:43:34.232Z,80.20
2019-05-05T13:44:18.592Z,80.50
2019-05-05T13:45:16.351Z,79.70
2019-05-05T13:46:21.737Z,79.00
2019-05-05T13:47:28.898Z,79.40
2019-05-05T13:48:07.382Z,79.80
2019-05-05T13:48:45.936Z,79.80
2019-05-05T13:49:33.740Z,79.60
2019-05-05T13:50:15.511Z,79.50
2019-05-05T13:50:57.347Z,79.50
2019-05-05T13:51:36.023Z,79.70
2019-05-05T13:52:15.186Z,79.40
2019-05-05T13:52:53.536Z,79.50
2019-05-05T13:53:34.091Z,79.70
2019-05-05T13:54:13.563Z,79.30
2019-05-05T13:54:51.627Z,79.40
2019-05-05T13:55:30.099Z,79.70
2019-05-05T13:56:12.187Z,79.70
2019-05-05T13:56:48.325Z,80.30
2019-05-05T13:57:26.743Z,79.50
2019-05-05T13:58:05.110Z,79.50
2019-05-05T13:58:43.822Z,79.60
2019-05-05T13:59:22.299Z,79.60
2019-05-05T14:00:00.677Z,79.80
2019-05-05T14:00:40.468Z,79.70
2019-05-05T14:01:18.875Z,79.90
2019-05-05T14:01:57.283Z,79.20
2019-05-05T14:02:41.544Z,79.40
2019-05-05T14:03:19.972Z,79.70
2019-05-05T14:03:58.374Z,79.30
2019-05-05T14:04:36.939Z,79.50
2019-05-05T14:05:17.901Z,79.70
2019-05-05T14:05:56.414Z,79.40
2019-05-05T14:06:34.845Z,79.40
2019-05-05T14:07:13.257Z,79.80
2019-05-05T14:07:53.591Z,80.00
2019-05-05T14:08:35.605Z,80.30
2019-05-05T14:09:13.310Z,79.70
2019-05-05T14:09:51.381Z,79.60
2019-05-05T14:10:29.779Z,79.50
2019-05-05T14:11:08.178Z,79.60
2019-05-05T14:11:46.700Z,80.00
2019-05-05T14:12:25.090Z,79.50
2019-05-05T14:13:03.777Z,79.40
2019-05-05T14:13:45.538Z,79.20
2019-05-05T14:14:24.231Z,79.40
2019-05-05T14:15:04.071Z,79.40
2019-05-05T14:15:44.054Z,79.70
2019-05-05T14:16:22.553Z,80.20
2019-05-05T14:17:00.989Z,79.90
2019-05-05T14:17:40.786Z,80.50
2019-05-05T14:18:19.332Z,80.10
2019-05-05T14:18:57.790Z,79.90
2019-05-05T14:19:36.483Z,80.00
2019-05-05T14:20:15.796Z,79.70
2019-05-05T14:20:54.208Z,79.90
2019-05-05T14:21:33.974Z,80.00
2019-05-05T14:22:12.653Z,79.70
2019-05-05T14:22:51.320Z,79.90
2019-05-05T14:23:30.396Z,80.20
2019-05-05T14:24:23.776Z,80.30
2019-05-05T14:25:09.883Z,80.40
2019-05-05T14:25:48.256Z,80.60
2019-05-05T14:26:28.334Z,80.50
2019-05-05T14:27:06.683Z,80.40
2019-05-05T14:27:45.102Z,80.70
2019-05-05T14:28:23.583Z,80.30
2019-05-05T14:29:04.135Z,80.30
2019-05-05T14:30:04.069Z,80.70
2019-05-05T14:30:54.221Z,80.40
2019-05-05T14:31:36.212Z,80.10
2019-05-05T14:32:16.685Z,80.30
2019-05-05T14:32:55.105Z,80.30
2019-05-05T14:33:49.821Z,80.20
2019-05-05T14:34:30.444Z,80.30
2019-05-05T14:35:27.149Z,80.50
2019-05-05T14:36:15.859Z,80.20
2019-05-05T14:37:11.208Z,80.80
2019-05-05T14:37:53.453Z,81.00
2019-05-05T14:38:40.700Z,80.20
2019-05-05T14:39:19.618Z,80.30
2019-05-05T14:39:58.071Z,80.20
2019-05-05T14:40:36.446Z,80.30
2019-05-05T14:41:14.822Z,80.70
2019-05-05T14:41:53.957Z,81.00
2019-05-05T14:42:34.180Z,81.00
2019-05-05T14:43:13.351Z,81.40
2019-05-05T14:43:54.020Z,81.00
2019-05-05T14:44:31.813Z,80.90
2019-05-05T14:45:10.266Z,80.30
2019-05-05T14:45:48.724Z,80.70
2019-05-05T14:46:27.127Z,81.10
2019-05-05T14:47:05.578Z,81.20
2019-05-05T14:47:44.194Z,81.00
2019-05-05T14:48:24.224Z,81.00
2019-05-05T14:49:05.705Z,81.30
2019-05-05T14:49:44.406Z,80.90
2019-05-05T14:50:24.204Z,80.50
2019-05-05T14:51:03.992Z,81.00
2019-05-05T14:51:44.523Z,81.00
2019-05-05T14:52:24.313Z,81.20
2019-05-05T14:53:03.936Z,81.30
2019-05-05T14:53:43.706Z,81.10
2019-05-05T14:54:21.785Z,81.30
2019-05-05T14:55:00.194Z,80.80
2019-05-05T14:55:38.682Z,80.70
2019-05-05T14:56:17.072Z,81.10
2019-05-05T14:56:55.453Z,81.20
2019-05-05T14:57:33.778Z,81.50
2019-05-05T14:58:14.232Z,81.20
2019-05-05T14:58:53.991Z,81.40
2019-05-05T14:59:33.936Z,81.10
2019-05-05T15:00:13.797Z,81.30
2019-05-05T15:00:52.415Z,81.40
2019-05-05T15:01:30.843Z,81.50
2019-05-05T15:02:09.309Z,81.40
2019-05-05T15:02:47.708Z,81.40
2019-05-05T15:03:26.118Z,81.50
2019-05-05T15:04:07.714Z,81.40
2019-05-05T15:04:46.066Z,81.70
2019-05-05T15:05:40.442Z,81.30
2019-05-05T15:06:34.398Z,81.30
2019-05-05T15:07:28.207Z,81.40
2019-05-05T15:08:24.579Z,81.40
2019-05-05T15:09:36.228Z,81.70
2019-05-05T15:10:43.918Z,81.50
2019-05-05T15:11:33.761Z,81.60
2019-05-05T15:12:17.135Z,81.60
2019-05-05T15:12:58.922Z,81.40
2019-05-05T15:13:37.333Z,81.30
2019-05-05T15:14:15.692Z,81.20
2019-05-05T15:14:54.631Z,81.20
2019-05-05T15:15:33.159Z,81.10
2019-05-05T15:16:13.843Z,81.00
2019-05-05T15:16:51.583Z,81.40
2019-05-05T15:17:29.929Z,81.10
2019-05-05T15:18:08.359Z,81.40
2019-05-05T15:18:47.367Z,81.30
2019-05-05T15:19:26.006Z,81.20
2019-05-05T15:20:04.492Z,81.50
2019-05-05T15:20:44.018Z,81.40
2019-05-05T15:21:23.622Z,81.20
2019-05-05T15:22:02.198Z,81.30
2019-05-05T15:22:40.681Z,81.40
2019-05-05T15:23:19.130Z,81.40
2019-05-05T15:23:57.472Z,81.70
2019-05-05T15:24:35.799Z,82.20
2019-05-05T15:25:14.188Z,83.20
2019-05-05T15:25:53.988Z,82.50
2019-05-05T15:26:34.361Z,83.30
2019-05-05T15:27:12.377Z,84.20
2019-05-05T15:27:50.919Z,85.00
2019-05-05T15:28:29.264Z,86.00
2019-05-05T15:29:07.611Z,86.70
2019-05-05T15:29:46.013Z,87.00
2019-05-05T15:30:27.105Z,87.40
2019-05-05T15:31:04.320Z,88.20
2019-05-05T15:31:43.533Z,89.00
2019-05-05T15:32:23.798Z,89.40
2019-05-05T15:33:01.778Z,89.90
2019-05-05T15:33:41.602Z,90.20
2019-05-05T15:34:20.023Z,90.30
2019-05-05T15:34:58.429Z,90.60
2019-05-05T15:35:36.879Z,90.80
2019-05-05T15:36:15.380Z,90.90
2019-05-05T15:36:54.686Z,91.00
2019-05-05T15:37:33.243Z,91.10
2019-05-05T15:38:13.668Z,91.20
2019-05-05T15:38:51.503Z,91.20
2019-05-05T15:39:29.907Z,91.30